Time;durP1;ratioP1;P1;durP2;ratioP2;P2;SDS_P1;SDS_P2;PMS_P1;PMS_P2;Temp;Humidity;BMP_temperature;BMP_pressure;BME280_temperature;BME280_humidity;BME280_pressure;Samples;Min_cycle;Max_cycle;Signal;HPM_P1;HPM_P2
2021/05/31 00:00:08;;;;;;;25.27;15.13;;;13.30;98.30;;;;;;4058645;29;20468;-86
2021/05/31 00:02:10;;;;;;;25.27;15.17;;;13.30;98.30;;;;;;4061107;29;20468;-86
2021/05/31 00:04:14;;;;;;;25.53;16.40;;;13.30;98.30;;;;;;4060243;29;20507;-86
2021/05/31 00:06:16;;;;;;;28.03;15.33;;;13.30;98.30;;;;;;4057707;29;20577;-85
2021/05/31 00:08:19;;;;;;;22.60;16.00;;;13.20;98.30;;;;;;4061402;29;20479;-85
2021/05/31 00:10:23;;;;;;;22.67;15.93;;;13.20;98.30;;;;;;4060625;29;21065;-85
2021/05/31 00:12:25;;;;;;;27.40;17.13;;;13.20;98.30;;;;;;4060024;29;20467;-85
2021/05/31 00:14:29;;;;;;;25.60;15.90;;;13.20;98.30;;;;;;4059295;29;20467;-85
2021/05/31 00:16:32;;;;;;;27.30;16.20;;;13.10;98.30;;;;;;4059743;29;20491;-86
2021/05/31 00:18:34;;;;;;;32.57;18.07;;;13.10;98.30;;;;;;4059993;29;20471;-85
2021/05/31 00:20:37;;;;;;;26.87;16.97;;;13.00;98.30;;;;;;4059931;29;21508;-83
2021/05/31 00:22:40;;;;;;;24.40;16.87;;;12.90;98.30;;;;;;4059510;29;20514;-83
2021/05/31 00:24:42;;;;;;;27.77;16.50;;;12.70;98.30;;;;;;4059388;29;20487;-86
2021/05/31 00:26:45;;;;;;;28.40;17.40;;;12.60;98.30;;;;;;4060079;29;20489;-85
2021/05/31 00:28:48;;;;;;;26.03;17.13;;;12.70;98.30;;;;;;4060324;29;20474;-85
2021/05/31 00:30:50;;;;;;;26.97;17.97;;;12.70;98.30;;;;;;4060102;29;20862;-86
2021/05/31 00:32:54;;;;;;;26.90;17.67;;;12.80;98.30;;;;;;4059844;29;20535;-86
2021/05/31 00:34:56;;;;;;;29.33;18.23;;;12.80;98.30;;;;;;4060138;29;20495;-86
2021/05/31 00:37:00;;;;;;;26.77;17.40;;;12.80;98.30;;;;;;4059645;29;20479;-86
2021/05/31 00:39:03;;;;;;;25.20;16.73;;;12.70;98.30;;;;;;4053401;29;21007;-84
2021/05/31 00:41:06;;;;;;;22.60;16.57;;;12.80;98.30;;;;;;4055211;29;21134;-83
2021/05/31 00:43:08;;;;;;;28.50;17.60;;;12.70;98.30;;;;;;4059993;29;20848;-83
2021/05/31 00:45:14;;;;;;;25.63;18.20;;;12.70;98.30;;;;;;4059436;29;20502;-83
2021/05/31 00:47:17;;;;;;;28.93;17.40;;;12.70;98.30;;;;;;4060297;29;20865;-84
2021/05/31 00:49:21;;;;;;;24.10;16.93;;;12.60;98.30;;;;;;4060075;29;20563;-83
2021/05/31 00:51:25;;;;;;;27.60;18.80;;;12.50;98.30;;;;;;4060541;29;20525;-83
2021/05/31 00:53:30;;;;;;;27.27;17.47;;;12.50;98.30;;;;;;4056698;29;20946;-83
2021/05/31 00:55:32;;;;;;;30.00;17.57;;;12.40;98.30;;;;;;4061017;29;20579;-83
2021/05/31 00:57:35;;;;;;;26.87;17.30;;;12.40;98.30;;;;;;4061787;29;20486;-83
2021/05/31 00:59:38;;;;;;;28.90;20.27;;;12.50;98.30;;;;;;4062746;29;20558;-83
2021/05/31 01:01:41;;;;;;;27.07;19.63;;;12.40;98.30;;;;;;4067426;29;20460;-83
2021/05/31 01:03:44;;;;;;;28.03;17.83;;;12.30;98.30;;;;;;4059493;29;20518;-84
2021/05/31 01:05:47;;;;;;;29.17;17.90;;;12.40;98.30;;;;;;4057105;29;21061;-83
2021/05/31 01:07:57;;;;;;;24.17;17.10;;;12.40;98.30;;;;;;4059550;29;20504;-84
2021/05/31 01:10:12;;;;;;;29.67;19.40;;;12.40;98.30;;;;;;4060036;29;21015;-85
2021/05/31 01:12:23;;;;;;;28.80;17.07;;;12.30;98.30;;;;;;4059292;29;20472;-85
2021/05/31 01:14:34;;;;;;;27.20;17.60;;;12.20;98.30;;;;;;4058804;29;20554;-85
2021/05/31 01:16:42;;;;;;;26.47;17.17;;;12.30;98.30;;;;;;4060256;29;20475;-85
2021/05/31 01:18:50;;;;;;;28.13;17.90;;;12.40;98.30;;;;;;4059321;29;20497;-85
2021/05/31 01:21:02;;;;;;;27.80;17.60;;;12.50;98.30;;;;;;4059208;29;20468;-85
2021/05/31 01:23:10;;;;;;;28.87;18.37;;;12.70;98.30;;;;;;4059475;29;20507;-85
2021/05/31 01:25:26;;;;;;;27.80;18.40;;;12.70;98.30;;;;;;4057311;29;20495;-85
2021/05/31 01:27:37;;;;;;;28.70;16.50;;;12.70;98.30;;;;;;4059430;29;20478;-85
2021/05/31 01:29:46;;;;;;;27.13;17.90;;;12.60;98.30;;;;;;4058326;29;20480;-85
2021/05/31 01:31:53;;;;;;;28.47;17.30;;;12.60;98.30;;;;;;4058315;29;20565;-85
2021/05/31 01:33:56;;;;;;;25.00;16.63;;;12.60;98.30;;;;;;4058247;29;20464;-85
2021/05/31 01:36:02;;;;;;;30.90;18.83;;;12.50;98.30;;;;;;4058558;29;21104;-85
2021/05/31 01:38:05;;;;;;;24.80;16.50;;;12.40;98.30;;;;;;4058220;29;20479;-85
2021/05/31 01:40:10;;;;;;;28.17;18.00;;;12.40;98.30;;;;;;4059882;29;20911;-85
2021/05/31 01:42:14;;;;;;;30.07;18.57;;;12.40;98.30;;;;;;4059157;29;20570;-84
2021/05/31 01:44:19;;;;;;;24.47;16.47;;;12.40;98.30;;;;;;4056786;29;20915;-84
2021/05/31 01:46:23;;;;;;;27.37;16.87;;;12.50;98.30;;;;;;4058880;29;20499;-84
2021/05/31 01:48:25;;;;;;;23.27;16.47;;;12.60;98.30;;;;;;4058748;29;20571;-85
2021/05/31 01:50:28;;;;;;;28.70;17.30;;;12.70;98.30;;;;;;4056848;29;20566;-85
2021/05/31 01:52:31;;;;;;;25.97;17.07;;;12.70;98.30;;;;;;4054871;29;20893;-84
2021/05/31 01:54:34;;;;;;;23.53;15.33;;;12.80;98.30;;;;;;4058451;29;20886;-84
2021/05/31 01:56:38;;;;;;;26.90;16.67;;;12.70;98.30;;;;;;4057376;29;20976;-85
2021/05/31 01:58:40;;;;;;;30.03;17.70;;;12.80;98.30;;;;;;4058938;29;20479;-85
2021/05/31 02:00:43;;;;;;;27.33;17.10;;;12.70;98.30;;;;;;4057830;29;20467;-84
2021/05/31 02:02:47;;;;;;;26.07;17.10;;;12.70;98.30;;;;;;4059796;29;20528;-85
2021/05/31 02:04:49;;;;;;;27.00;17.43;;;12.80;98.30;;;;;;4056190;29;20565;-85
2021/05/31 02:06:53;;;;;;;24.40;16.30;;;12.70;98.30;;;;;;4063437;29;20482;-85
2021/05/31 02:08:55;;;;;;;25.30;17.13;;;12.70;98.30;;;;;;4060931;29;20468;-83
2021/05/31 02:11:07;;;;;;;28.77;17.97;;;12.60;98.30;;;;;;4058985;29;20476;-85
2021/05/31 02:13:12;;;;;;;23.73;17.03;;;12.50;98.30;;;;;;4059555;29;20478;-84
2021/05/31 02:15:17;;;;;;;21.97;16.90;;;12.50;98.30;;;;;;4058236;29;20583;-84
2021/05/31 02:17:27;;;;;;;25.30;18.37;;;12.60;98.30;;;;;;4057971;29;21080;-84
2021/05/31 02:19:34;;;;;;;29.17;17.60;;;12.60;98.30;;;;;;4058046;29;20482;-84
2021/05/31 02:21:39;;;;;;;24.00;17.07;;;12.60;98.30;;;;;;4059224;29;20561;-84
2021/05/31 02:23:44;;;;;;;26.40;16.00;;;12.50;98.30;;;;;;4058566;29;20472;-85
2021/05/31 02:25:49;;;;;;;26.90;17.03;;;12.60;98.30;;;;;;4057871;29;20586;-84
2021/05/31 02:27:52;;;;;;;27.23;17.60;;;12.60;98.30;;;;;;4057914;29;20476;-84
2021/05/31 02:29:54;;;;;;;28.07;16.70;;;12.60;98.30;;;;;;4057189;29;20490;-83
2021/05/31 02:31:57;;;;;;;28.97;18.00;;;12.70;98.30;;;;;;4055475;29;20488;-84
2021/05/31 02:34:00;;;;;;;28.17;18.37;;;12.60;98.30;;;;;;4056525;29;20476;-85
2021/05/31 02:36:04;;;;;;;28.27;17.57;;;12.50;98.30;;;;;;4059566;29;20490;-85
2021/05/31 02:38:08;;;;;;;27.17;17.20;;;12.40;98.30;;;;;;4057813;29;20477;-84
2021/05/31 02:40:11;;;;;;;27.80;17.57;;;12.40;98.30;;;;;;4058281;29;20498;-83
2021/05/31 02:42:14;;;;;;;27.57;18.40;;;12.30;98.30;;;;;;4057951;29;20484;-83
2021/05/31 02:44:17;;;;;;;28.80;18.87;;;12.40;98.30;;;;;;4057333;29;20479;-84
2021/05/31 02:46:19;;;;;;;25.17;16.73;;;12.40;98.30;;;;;;4058913;29;20505;-84
2021/05/31 02:48:23;;;;;;;21.83;16.87;;;12.40;98.30;;;;;;4056700;29;22227;-84
2021/05/31 02:50:27;;;;;;;26.57;18.10;;;12.40;98.30;;;;;;4056981;29;20514;-84
2021/05/31 02:52:31;;;;;;;27.03;16.33;;;12.40;98.30;;;;;;4057412;29;20478;-84
2021/05/31 02:54:34;;;;;;;24.40;16.87;;;12.40;98.30;;;;;;4057647;29;20479;-84
2021/05/31 02:56:38;;;;;;;27.33;15.57;;;12.40;98.30;;;;;;4055841;29;20464;-85
2021/05/31 02:58:42;;;;;;;25.60;16.93;;;12.30;98.30;;;;;;4053329;29;20561;-85
2021/05/31 03:00:45;;;;;;;26.43;18.37;;;12.20;98.30;;;;;;4057919;29;20470;-84
2021/05/31 03:02:48;;;;;;;25.40;17.80;;;12.20;98.30;;;;;;4058341;29;20564;-84
2021/05/31 03:04:50;;;;;;;24.50;17.40;;;12.20;98.30;;;;;;4054853;29;20587;-84
2021/05/31 03:06:54;;;;;;;27.33;17.03;;;12.20;98.30;;;;;;4057775;29;20492;-84
2021/05/31 03:08:58;;;;;;;25.40;17.60;;;12.10;98.30;;;;;;4058066;29;20471;-84
2021/05/31 03:11:00;;;;;;;28.47;17.37;;;12.20;98.30;;;;;;4055559;29;20494;-84
2021/05/31 03:13:04;;;;;;;23.97;16.20;;;12.20;98.30;;;;;;4062165;29;20454;-84
2021/05/31 03:15:09;;;;;;;23.17;16.40;;;12.30;98.30;;;;;;4058397;29;20489;-84
2021/05/31 03:17:12;;;;;;;27.57;15.67;;;12.30;98.30;;;;;;4057787;29;20563;-85
2021/05/31 03:19:14;;;;;;;24.20;16.70;;;12.40;98.30;;;;;;4056599;29;20506;-85
2021/05/31 03:21:17;;;;;;;31.00;18.40;;;12.30;98.30;;;;;;4055167;29;20475;-85
2021/05/31 03:23:19;;;;;;;26.07;15.70;;;12.30;98.30;;;;;;4054676;29;20546;-85
2021/05/31 03:25:28;;;;;;;22.07;15.73;;;12.30;98.30;;;;;;4057049;29;20959;-85
2021/05/31 03:27:30;;;;;;;26.77;16.00;;;12.30;98.30;;;;;;4058006;29;20479;-85
2021/05/31 03:29:33;;;;;;;29.50;16.37;;;12.30;98.30;;;;;;4057799;29;20836;-84
2021/05/31 03:31:35;;;;;;;22.40;14.70;;;12.30;98.30;;;;;;4057268;29;20486;-84
2021/05/31 03:33:38;;;;;;;20.83;14.37;;;12.30;98.30;;;;;;4057157;29;20514;-84
2021/05/31 03:35:40;;;;;;;20.40;13.93;;;12.30;98.30;;;;;;4056209;29;20484;-84
2021/05/31 03:37:44;;;;;;;24.87;16.30;;;12.30;98.30;;;;;;4057360;29;20476;-84
2021/05/31 03:39:47;;;;;;;20.77;14.73;;;12.40;98.30;;;;;;4056157;29;20479;-84
2021/05/31 03:41:51;;;;;;;24.57;17.17;;;12.40;98.30;;;;;;4055431;29;20478;-84
2021/05/31 03:43:53;;;;;;;23.70;14.80;;;12.40;98.30;;;;;;4055506;29;20467;-84
2021/05/31 03:45:56;;;;;;;22.83;14.87;;;12.30;98.30;;;;;;4054197;29;20498;-84
2021/05/31 03:47:58;;;;;;;21.37;14.97;;;12.30;98.30;;;;;;4057777;29;20485;-84
2021/05/31 03:50:01;;;;;;;19.83;13.03;;;12.30;98.30;;;;;;4056993;29;20472;-84
2021/05/31 03:52:04;;;;;;;20.23;15.23;;;12.30;98.30;;;;;;4056371;29;20475;-83
2021/05/31 03:54:06;;;;;;;20.90;14.30;;;12.30;98.30;;;;;;4057049;29;20483;-85
2021/05/31 03:56:09;;;;;;;18.77;13.23;;;12.30;98.30;;;;;;4056890;29;21035;-85
2021/05/31 03:58:13;;;;;;;19.60;14.90;;;12.30;98.30;;;;;;4056587;29;20476;-85
2021/05/31 04:00:17;;;;;;;20.90;14.30;;;12.20;98.30;;;;;;4054818;29;20886;-84
2021/05/31 04:02:20;;;;;;;21.63;14.10;;;12.20;98.30;;;;;;4056287;29;20476;-84
2021/05/31 04:04:23;;;;;;;16.90;13.57;;;12.30;98.30;;;;;;4055621;29;20786;-84
2021/05/31 04:06:33;;;;;;;19.27;13.47;;;12.30;98.30;;;;;;4056795;29;20503;-85
2021/05/31 04:13:17;;;;;;;16.57;13.47;;;12.50;98.30;;;;;;4057680;29;20507;-84
2021/05/31 04:15:20;;;;;;;18.80;13.17;;;12.40;98.30;;;;;;4056764;29;21001;-84
2021/05/31 04:17:23;;;;;;;21.67;14.20;;;12.30;98.30;;;;;;4058079;29;20840;-84
2021/05/31 04:19:26;;;;;;;19.77;13.97;;;12.30;98.30;;;;;;4060420;29;20509;-84
2021/05/31 04:21:28;;;;;;;18.80;13.63;;;12.20;98.30;;;;;;4059036;29;20486;-84
2021/05/31 04:23:31;;;;;;;23.83;13.97;;;12.20;98.30;;;;;;4057489;29;20482;-84
2021/05/31 04:25:33;;;;;;;15.83;12.37;;;12.20;98.30;;;;;;4059159;29;20488;-84
2021/05/31 04:27:36;;;;;;;17.20;12.50;;;12.20;98.30;;;;;;4058834;29;20707;-84
2021/05/31 04:29:40;;;;;;;20.70;12.77;;;12.20;98.30;;;;;;4059179;29;20863;-84
2021/05/31 04:31:43;;;;;;;25.43;13.40;;;12.20;98.30;;;;;;4057967;29;20486;-85
2021/05/31 04:33:45;;;;;;;19.97;12.63;;;12.30;98.30;;;;;;4063142;29;20573;-83
2021/05/31 04:35:48;;;;;;;21.60;13.63;;;12.40;98.30;;;;;;4057615;29;20495;-83
2021/05/31 04:37:56;;;;;;;22.77;13.67;;;12.50;98.30;;;;;;4064455;29;20471;-83
2021/05/31 04:39:59;;;;;;;19.87;13.80;;;12.50;98.30;;;;;;4066040;29;20562;-83
2021/05/31 04:42:02;;;;;;;21.60;12.60;;;12.60;98.30;;;;;;4066949;29;21286;-83
2021/05/31 04:44:05;;;;;;;22.80;13.53;;;12.60;98.30;;;;;;4060828;29;20559;-83
2021/05/31 04:46:09;;;;;;;17.73;12.60;;;12.70;98.30;;;;;;4060180;29;21178;-83
2021/05/31 04:48:12;;;;;;;16.10;12.53;;;12.60;98.30;;;;;;4059886;29;20485;-84
2021/05/31 04:50:15;;;;;;;20.63;12.97;;;12.60;98.30;;;;;;4061601;29;20471;-85
2021/05/31 04:52:17;;;;;;;15.17;11.77;;;12.70;98.30;;;;;;4055846;29;20827;-84
2021/05/31 04:54:20;;;;;;;16.00;12.67;;;12.80;98.30;;;;;;4057641;29;20916;-84
2021/05/31 04:56:22;;;;;;;15.67;12.07;;;12.80;98.30;;;;;;4060501;29;20496;-84
2021/05/31 04:58:25;;;;;;;14.60;11.17;;;12.80;98.30;;;;;;4058024;29;20510;-84
2021/05/31 05:00:28;;;;;;;17.70;13.13;;;12.80;98.30;;;;;;4059963;29;21006;-84
2021/05/31 05:02:32;;;;;;;19.23;10.80;;;12.80;98.30;;;;;;4058516;29;20515;-84
2021/05/31 05:04:34;;;;;;;13.90;10.40;;;12.80;98.30;;;;;;4057644;29;20468;-84
2021/05/31 05:06:37;;;;;;;14.23;10.73;;;12.90;98.30;;;;;;4058369;29;20992;-84
2021/05/31 05:08:39;;;;;;;13.40;9.70;;;12.80;98.30;;;;;;4059430;29;20479;-84
2021/05/31 05:10:42;;;;;;;11.87;8.87;;;12.80;98.30;;;;;;4059522;29;20480;-84
2021/05/31 05:12:45;;;;;;;12.33;10.10;;;12.70;98.30;;;;;;4055852;29;20478;-84
2021/05/31 05:14:48;;;;;;;13.50;9.73;;;12.80;98.30;;;;;;4057335;29;20475;-84
2021/05/31 05:16:50;;;;;;;46.03;32.60;;;12.80;98.30;;;;;;4058068;29;20487;-85
2021/05/31 05:18:55;;;;;;;18.67;12.90;;;13.00;98.30;;;;;;4059367;29;20476;-85
2021/05/31 05:20:59;;;;;;;15.40;11.30;;;13.00;98.30;;;;;;4057881;29;20475;-84
2021/05/31 05:23:02;;;;;;;11.53;9.03;;;13.10;98.30;;;;;;4065227;29;20567;-84
2021/05/31 05:25:25;;;;;;;13.80;8.90;;;13.10;98.30;;;;;;4059119;29;21088;-84
2021/05/31 05:27:27;;;;;;;12.63;8.80;;;13.20;98.30;;;;;;4059494;29;20543;-84
2021/05/31 05:29:31;;;;;;;9.77;8.70;;;13.20;98.30;;;;;;4057151;29;20891;-84
2021/05/31 05:31:34;;;;;;;11.17;8.73;;;13.30;98.30;;;;;;4059007;29;20833;-84
2021/05/31 05:33:37;;;;;;;9.27;8.30;;;13.30;98.30;;;;;;4058628;29;21023;-84
2021/05/31 05:35:45;;;;;;;10.50;8.20;;;13.40;98.30;;;;;;4058278;29;20506;-84
2021/05/31 05:38:14;;;;;;;11.53;8.40;;;13.40;98.30;;;;;;4060321;29;20506;-84
2021/05/31 05:43:04;;;;;;;10.70;7.13;;;13.50;98.30;;;;;;4010202;29;21476;-84
2021/05/31 05:45:42;;;;;;;9.70;6.23;;;13.60;98.30;;;;;;4058389;29;20487;-84
2021/05/31 05:47:46;;;;;;;11.23;6.00;;;13.50;98.30;;;;;;4059868;29;20490;-84
2021/05/31 05:49:50;;;;;;;8.13;5.60;;;13.40;98.30;;;;;;4058250;29;20479;-83
2021/05/31 05:51:54;;;;;;;8.27;6.03;;;13.40;98.30;;;;;;4057724;29;20570;-84
2021/05/31 05:53:59;;;;;;;7.93;5.97;;;13.50;98.30;;;;;;4058443;29;20479;-84
2021/05/31 05:56:02;;;;;;;7.43;5.80;;;13.60;98.30;;;;;;4059374;29;20528;-84
2021/05/31 05:58:05;;;;;;;5.17;4.67;;;13.60;98.30;;;;;;4059125;29;20469;-84
2021/05/31 06:00:11;;;;;;;8.40;5.80;;;13.70;98.30;;;;;;4058463;29;20475;-84
2021/05/31 06:02:13;;;;;;;8.30;6.47;;;13.70;97.90;;;;;;4058107;29;20490;-84
2021/05/31 06:04:16;;;;;;;8.20;6.00;;;13.80;98.30;;;;;;4059582;29;20475;-84
2021/05/31 06:06:19;;;;;;;6.60;4.80;;;13.90;97.50;;;;;;4058430;29;20933;-84
2021/05/31 06:08:23;;;;;;;5.87;4.83;;;13.90;97.30;;;;;;4058263;29;20833;-84
2021/05/31 06:10:25;;;;;;;6.47;5.27;;;13.90;96.50;;;;;;4058844;29;20506;-84
2021/05/31 06:12:28;;;;;;;7.80;5.77;;;14.00;95.30;;;;;;4057680;29;20863;-85
2021/05/31 06:14:30;;;;;;;4.40;4.00;;;14.00;94.10;;;;;;4057593;29;20475;-85
2021/05/31 06:16:33;;;;;;;5.80;5.17;;;14.10;93.20;;;;;;4056909;29;20902;-85
2021/05/31 06:18:35;;;;;;;6.20;4.87;;;14.10;93.80;;;;;;4059011;29;20478;-86
2021/05/31 06:20:39;;;;;;;6.30;4.50;;;14.30;93.30;;;;;;4057269;29;20929;-85
2021/05/31 06:22:41;;;;;;;5.60;3.83;;;14.40;93.40;;;;;;4057748;29;20511;-85
2021/05/31 06:24:46;;;;;;;5.53;4.40;;;14.40;92.80;;;;;;4057452;29;20463;-84
2021/05/31 06:26:49;;;;;;;6.27;4.83;;;14.40;91.80;;;;;;4061157;29;20586;-83
2021/05/31 06:28:51;;;;;;;5.47;4.50;;;14.50;92.10;;;;;;4058106;29;21037;-84
2021/05/31 06:30:54;;;;;;;4.60;4.20;;;14.60;92.80;;;;;;4057406;29;20478;-83
2021/05/31 06:32:56;;;;;;;6.47;4.90;;;14.70;92.00;;;;;;4058745;29;20492;-84
2021/05/31 06:35:00;;;;;;;5.10;4.03;;;14.80;92.30;;;;;;4057484;29;20583;-84
2021/05/31 06:37:03;;;;;;;6.50;4.40;;;14.90;91.40;;;;;;4057259;29;20542;-83
2021/05/31 06:39:07;;;;;;;6.20;4.63;;;14.80;91.60;;;;;;4057207;29;20478;-84
2021/05/31 06:41:11;;;;;;;4.43;4.03;;;14.90;89.80;;;;;;4057878;29;20522;-84
2021/05/31 06:43:13;;;;;;;4.83;3.80;;;14.90;88.30;;;;;;4057522;29;20483;-83
2021/05/31 06:45:21;;;;;;;7.30;4.47;;;14.70;88.60;;;;;;4056228;29;20527;-83
2021/05/31 06:47:23;;;;;;;12.30;6.83;;;14.70;88.90;;;;;;4058923;29;20492;-86
2021/05/31 06:49:26;;;;;;;35.50;20.93;;;14.80;90.00;;;;;;4057907;29;20480;-85
2021/05/31 06:51:28;;;;;;;20.30;13.63;;;15.20;93.10;;;;;;4057110;29;20479;-85
2021/05/31 06:53:30;;;;;;;7.20;4.77;;;15.40;92.60;;;;;;4051799;29;20491;-84
2021/05/31 06:55:35;;;;;;;5.43;4.30;;;15.60;90.90;;;;;;4057091;29;20496;-85
2021/05/31 06:57:40;;;;;;;5.27;4.43;;;15.60;89.90;;;;;;4057431;29;20615;-85
2021/05/31 06:59:43;;;;;;;6.17;4.60;;;15.70;90.30;;;;;;4055751;29;21178;-85
2021/05/31 07:01:45;;;;;;;4.83;4.33;;;15.90;89.80;;;;;;4059613;29;20491;-86
2021/05/31 07:03:47;;;;;;;5.73;4.73;;;16.00;89.30;;;;;;4049376;29;20551;-85
2021/05/31 07:05:50;;;;;;;5.93;5.33;;;16.00;88.60;;;;;;4054879;29;20487;-86
2021/05/31 07:07:52;;;;;;;9.20;6.67;;;15.90;89.50;;;;;;4051672;29;20502;-85
2021/05/31 07:09:55;;;;;;;6.63;4.53;;;15.90;89.00;;;;;;4049561;29;20516;-85
2021/05/31 07:11:57;;;;;;;7.10;3.77;;;15.80;87.60;;;;;;4053083;29;20489;-85
2021/05/31 07:14:03;;;;;;;6.60;5.23;;;15.70;88.40;;;;;;4052411;29;20516;-85
2021/05/31 07:16:08;;;;;;;4.60;4.20;;;15.90;88.30;;;;;;4053864;29;20504;-85
2021/05/31 07:18:11;;;;;;;6.13;4.20;;;16.10;88.70;;;;;;4063073;29;20475;-84
2021/05/31 07:20:16;;;;;;;5.77;4.70;;;16.30;86.90;;;;;;4066473;29;20562;-85
2021/05/31 07:22:22;;;;;;;5.10;4.47;;;16.20;87.20;;;;;;4064336;29;20491;-85
2021/05/31 07:24:24;;;;;;;6.13;4.70;;;16.20;88.00;;;;;;4058759;29;20948;-86
2021/05/31 07:26:27;;;;;;;6.60;4.50;;;16.40;87.80;;;;;;4059606;29;20502;-85
2021/05/31 07:28:29;;;;;;;8.37;6.47;;;16.50;87.10;;;;;;4052341;29;21180;-85
2021/05/31 07:30:33;;;;;;;9.90;7.40;;;16.60;88.20;;;;;;4051584;29;20566;-85
2021/05/31 07:32:37;;;;;;;5.70;4.37;;;16.70;87.50;;;;;;4050719;29;20488;-85
2021/05/31 07:34:39;;;;;;;6.03;4.50;;;17.00;88.00;;;;;;4060095;29;20464;-85
2021/05/31 07:36:42;;;;;;;4.80;3.90;;;17.20;87.40;;;;;;4059342;29;20479;-85
2021/05/31 07:38:44;;;;;;;4.73;4.20;;;17.20;86.00;;;;;;4060427;29;20476;-86
2021/05/31 07:40:48;;;;;;;5.20;4.10;;;17.30;85.90;;;;;;4056915;29;20468;-86
2021/05/31 07:42:51;;;;;;;6.03;3.93;;;17.40;85.30;;;;;;4050472;29;20480;-85
2021/05/31 07:44:53;;;;;;;3.60;3.30;;;17.30;83.90;;;;;;4052582;29;20468;-86
2021/05/31 07:46:57;;;;;;;9.40;6.73;;;17.10;83.10;;;;;;4056837;29;20465;-85
2021/05/31 07:49:00;;;;;;;5.40;4.90;;;17.10;83.80;;;;;;4055427;29;20486;-85
2021/05/31 07:51:15;;;;;;;7.23;4.80;;;17.10;83.90;;;;;;4054302;29;20486;-85
2021/05/31 07:53:20;;;;;;;6.00;4.80;;;17.20;84.50;;;;;;4058453;29;20472;-86
2021/05/31 07:55:23;;;;;;;6.37;3.93;;;17.50;84.90;;;;;;4051515;29;21149;-85
2021/05/31 07:57:26;;;;;;;5.93;5.17;;;17.60;82.50;;;;;;4067148;29;20481;-86
2021/05/31 07:59:28;;;;;;;6.03;5.40;;;17.80;83.20;;;;;;4054349;29;20483;-86
2021/05/31 08:01:32;;;;;;;9.17;7.03;;;17.80;83.10;;;;;;4052770;29;20488;-86
2021/05/31 08:03:36;;;;;;;4.93;4.03;;;17.90;82.90;;;;;;4056719;29;20480;-85
2021/05/31 08:05:38;;;;;;;13.00;9.63;;;18.00;83.40;;;;;;4052414;29;20920;-85
2021/05/31 08:07:41;;;;;;;7.43;5.20;;;18.20;84.00;;;;;;4053920;29;20499;-86
2021/05/31 08:09:47;;;;;;;5.33;4.00;;;18.40;80.90;;;;;;4052298;29;20845;-84
2021/05/31 08:11:50;;;;;;;6.10;4.47;;;18.40;79.00;;;;;;4057114;29;20477;-85
2021/05/31 08:13:52;;;;;;;4.47;4.07;;;18.50;80.30;;;;;;4054591;29;20483;-84
2021/05/31 08:15:55;;;;;;;5.67;4.17;;;18.60;80.60;;;;;;4052735;29;20501;-86
2021/05/31 08:18:01;;;;;;;4.33;3.70;;;18.60;80.10;;;;;;4053455;29;20547;-85
2021/05/31 08:20:07;;;;;;;4.03;3.60;;;18.70;80.40;;;;;;4060818;29;20479;-86
2021/05/31 08:22:10;;;;;;;4.50;3.87;;;18.80;79.00;;;;;;4053193;29;20520;-86
2021/05/31 08:24:12;;;;;;;4.07;3.67;;;18.70;78.70;;;;;;4052788;29;20964;-86
2021/05/31 08:26:19;;;;;;;4.03;3.40;;;18.80;78.20;;;;;;4057048;29;20902;-86
2021/05/31 08:28:21;;;;;;;4.50;3.57;;;18.90;76.90;;;;;;4056728;29;20487;-86
2021/05/31 08:30:24;;;;;;;5.43;3.47;;;18.60;75.30;;;;;;4064880;29;20494;-86
2021/05/31 08:32:26;;;;;;;4.10;3.70;;;18.60;76.00;;;;;;4061791;29;21008;-85
2021/05/31 08:34:29;;;;;;;5.33;3.60;;;18.60;75.70;;;;;;4053405;29;20487;-84
2021/05/31 08:36:34;;;;;;;3.87;3.57;;;18.70;73.70;;;;;;4054205;29;20586;-85
2021/05/31 08:38:37;;;;;;;4.73;3.50;;;18.60;73.60;;;;;;4063709;29;20509;-84
2021/05/31 08:40:40;;;;;;;8.70;3.60;;;18.60;74.20;;;;;;4070799;29;20502;-86
2021/05/31 08:42:43;;;;;;;7.50;3.43;;;18.60;74.80;;;;;;4057075;29;20484;-86
2021/05/31 08:44:45;;;;;;;3.80;3.40;;;18.70;74.30;;;;;;4061411;29;20532;-85
2021/05/31 08:46:48;;;;;;;4.80;3.30;;;18.70;74.00;;;;;;4060058;29;20508;-85
2021/05/31 08:48:51;;;;;;;4.87;3.60;;;18.80;74.70;;;;;;4052946;29;20887;-85
2021/05/31 08:50:53;;;;;;;4.00;3.23;;;18.80;73.90;;;;;;4059628;29;20464;-86
2021/05/31 08:52:58;;;;;;;4.80;3.10;;;18.80;70.90;;;;;;4052811;29;20479;-86
2021/05/31 08:55:00;;;;;;;5.03;3.30;;;18.80;70.00;;;;;;4052267;29;20500;-85
2021/05/31 08:57:06;;;;;;;3.80;3.40;;;18.90;73.00;;;;;;4052981;29;20879;-86
2021/05/31 08:59:10;;;;;;;6.30;4.00;;;19.20;73.60;;;;;;4052883;29;20841;-85
2021/05/31 09:01:12;;;;;;;5.80;3.70;;;19.30;73.40;;;;;;4058437;29;20480;-86
2021/05/31 09:03:20;;;;;;;5.10;4.00;;;19.50;73.00;;;;;;4059786;29;20466;-86
2021/05/31 09:05:32;;;;;;;4.80;3.53;;;19.60;73.10;;;;;;4051948;29;20492;-86
2021/05/31 09:07:35;;;;;;;5.57;3.60;;;19.70;72.50;;;;;;4054790;29;20479;-86
2021/05/31 09:09:40;;;;;;;4.53;4.10;;;19.70;73.10;;;;;;4053069;29;20562;-84
2021/05/31 09:11:53;;;;;;;4.17;3.60;;;19.50;72.20;;;;;;4052601;29;20524;-86
2021/05/31 09:13:57;;;;;;;3.80;3.47;;;19.60;73.00;;;;;;4061371;29;20991;-85
2021/05/31 09:16:04;;;;;;;6.53;3.27;;;19.70;72.40;;;;;;4052487;29;20491;-86
2021/05/31 09:18:07;;;;;;;4.67;4.27;;;19.80;72.80;;;;;;4052116;29;20475;-86
2021/05/31 09:20:11;;;;;;;6.93;3.70;;;19.90;73.60;;;;;;4060027;29;20471;-86
2021/05/31 09:22:13;;;;;;;5.13;3.87;;;19.90;73.80;;;;;;4059950;29;20480;-86
2021/05/31 09:24:22;;;;;;;4.90;4.20;;;20.00;74.50;;;;;;4051714;29;20480;-87
2021/05/31 09:26:27;;;;;;;6.97;4.30;;;20.10;74.30;;;;;;4052118;29;20487;-86
2021/05/31 09:28:29;;;;;;;5.17;4.03;;;20.20;74.80;;;;;;4052500;29;20503;-86
2021/05/31 09:30:35;;;;;;;5.10;4.17;;;20.30;75.80;;;;;;4052183;29;20502;-85
2021/05/31 09:32:38;;;;;;;5.60;4.47;;;20.50;75.10;;;;;;4055036;29;20494;-86
2021/05/31 09:34:40;;;;;;;5.07;4.57;;;20.80;76.50;;;;;;4055636;29;20476;-86
2021/05/31 09:36:50;;;;;;;5.80;4.13;;;20.90;76.20;;;;;;4052956;29;20479;-86
2021/05/31 09:38:52;;;;;;;4.67;4.07;;;21.10;76.20;;;;;;4067278;29;20477;-86
2021/05/31 09:40:56;;;;;;;4.33;3.93;;;21.10;75.70;;;;;;4061777;29;20949;-86
2021/05/31 09:43:01;;;;;;;4.53;3.87;;;21.30;75.40;;;;;;4054952;29;21021;-86
2021/05/31 09:45:07;;;;;;;4.90;4.40;;;21.50;75.10;;;;;;4053716;29;20559;-85
2021/05/31 09:47:10;;;;;;;4.80;4.30;;;21.70;74.90;;;;;;4071616;29;20481;-86
2021/05/31 09:49:14;;;;;;;6.20;4.40;;;21.80;74.00;;;;;;4052045;29;20500;-86
2021/05/31 09:51:17;;;;;;;4.93;4.20;;;21.70;73.40;;;;;;4052003;29;20815;-86
2021/05/31 09:53:19;;;;;;;4.40;4.00;;;21.60;74.00;;;;;;4051922;29;20487;-86
2021/05/31 09:55:22;;;;;;;4.37;3.97;;;21.40;72.80;;;;;;4051261;29;20539;-86
2021/05/31 09:57:25;;;;;;;7.13;4.63;;;21.50;72.90;;;;;;4053984;29;20485;-87
2021/05/31 09:59:31;;;;;;;5.87;4.30;;;21.70;73.80;;;;;;4056447;29;20479;-86
2021/05/31 10:01:35;;;;;;;5.13;4.53;;;21.50;74.60;;;;;;4051800;29;20476;-85
2021/05/31 10:03:51;;;;;;;4.50;3.90;;;21.40;74.40;;;;;;4052675;29;20480;-87
2021/05/31 10:06:02;;;;;;;4.73;4.23;;;21.40;74.10;;;;;;4060021;29;21071;-86
2021/05/31 10:08:18;;;;;;;5.87;5.23;;;21.20;74.70;;;;;;4063421;29;20460;-86
2021/05/31 10:10:20;;;;;;;5.43;4.93;;;21.30;75.20;;;;;;4060857;29;20472;-86
2021/05/31 10:12:26;;;;;;;6.30;4.97;;;21.50;76.00;;;;;;4062281;29;20472;-87
2021/05/31 10:14:31;;;;;;;4.97;4.47;;;21.60;76.10;;;;;;4052701;29;20464;-86
2021/05/31 10:16:34;;;;;;;5.73;4.70;;;21.80;76.20;;;;;;4053344;29;20510;-86
2021/05/31 10:18:40;;;;;;;5.43;4.80;;;21.50;77.00;;;;;;4051628;29;20476;-86
2021/05/31 10:20:44;;;;;;;5.37;4.93;;;21.50;77.00;;;;;;4063065;29;20702;-85
2021/05/31 10:22:46;;;;;;;5.50;4.70;;;21.70;78.60;;;;;;4051663;29;20494;-86
2021/05/31 10:24:50;;;;;;;7.23;6.53;;;22.10;76.70;;;;;;4050854;29;20562;-86
2021/05/31 10:26:55;;;;;;;9.60;7.20;;;22.10;76.40;;;;;;4051614;29;20480;-87
2021/05/31 10:28:59;;;;;;;5.57;4.93;;;22.30;75.90;;;;;;4052273;29;20536;-87
2021/05/31 10:31:05;;;;;;;4.83;4.40;;;22.30;74.90;;;;;;4051442;29;20480;-86
2021/05/31 10:33:12;;;;;;;5.70;5.10;;;22.30;74.90;;;;;;4051137;29;20488;-87
2021/05/31 10:35:17;;;;;;;4.70;4.30;;;22.40;75.10;;;;;;4050797;29;20534;-86
2021/05/31 10:37:22;;;;;;;4.93;4.40;;;22.80;77.00;;;;;;4051636;29;20528;-86
2021/05/31 10:39:27;;;;;;;5.70;4.80;;;23.10;76.20;;;;;;4051449;29;20472;-87
2021/05/31 10:41:31;;;;;;;5.03;4.53;;;23.40;74.80;;;;;;4057679;29;20978;-85
2021/05/31 10:43:43;;;;;;;4.63;4.20;;;23.30;74.10;;;;;;4059183;29;21045;-85